sensor_id;sensor_type;location;lat;lon;timestamp;temperature;humidity
11454;DHT22;5783;55.174;61.310;2023-03-14T00:00:19;18.10;43.30
11454;DHT22;5783;55.174;61.310;2023-03-14T00:05:38;18.00;43.50
11454;DHT22;5783;55.174;61.310;2023-03-14T00:08:07;18.00;43.50
11454;DHT22;5783;55.174;61.310;2023-03-14T00:10:37;18.00;43.50
11454;DHT22;5783;55.174;61.310;2023-03-14T00:13:06;18.00;43.50
11454;DHT22;5783;55.174;61.310;2023-03-14T00:15:36;18.10;43.40
11454;DHT22;5783;55.174;61.310;2023-03-14T00:18:05;18.10;43.40
11454;DHT22;5783;55.174;61.310;2023-03-14T00:20:53;18.10;43.60
11454;DHT22;5783;55.174;61.310;2023-03-14T00:23:22;18.10;43.70
11454;DHT22;5783;55.174;61.310;2023-03-14T00:25:52;18.10;43.10
11454;DHT22;5783;55.174;61.310;2023-03-14T00:28:21;18.10;43.70
11454;DHT22;5783;55.174;61.310;2023-03-14T00:30:50;18.10;43.80
11454;DHT22;5783;55.174;61.310;2023-03-14T00:33:19;18.10;43.70
11454;DHT22;5783;55.174;61.310;2023-03-14T00:36:09;18.10;43.60
11454;DHT22;5783;55.174;61.310;2023-03-14T00:38:39;18.10;43.60
11454;DHT22;5783;55.174;61.310;2023-03-14T00:41:12;18.10;43.70
11454;DHT22;5783;55.174;61.310;2023-03-14T00:43:41;18.10;43.40
11454;DHT22;5783;55.174;61.310;2023-03-14T00:46:11;18.10;43.60
11454;DHT22;5783;55.174;61.310;2023-03-14T00:48:40;18.10;43.60
11454;DHT22;5783;55.174;61.310;2023-03-14T00:51:09;18.20;43.20
11454;DHT22;5783;55.174;61.310;2023-03-14T00:53:40;18.20;43.20
11454;DHT22;5783;55.174;61.310;2023-03-14T00:56:11;18.20;43.20
11454;DHT22;5783;55.174;61.310;2023-03-14T00:58:41;18.20;43.20
11454;DHT22;5783;55.174;61.310;2023-03-14T01:04:01;18.20;43.00
11454;DHT22;5783;55.174;61.310;2023-03-14T01:06:31;18.20;43.10
11454;DHT22;5783;55.174;61.310;2023-03-14T01:09:00;18.20;43.20
11454;DHT22;5783;55.174;61.310;2023-03-14T01:11:32;18.20;43.10
11454;DHT22;5783;55.174;61.310;2023-03-14T01:14:02;18.20;43.20
11454;DHT22;5783;55.174;61.310;2023-03-14T01:16:33;18.20;43.20
11454;DHT22;5783;55.174;61.310;2023-03-14T01:19:03;18.20;43.20
11454;DHT22;5783;55.174;61.310;2023-03-14T01:21:34;18.30;43.40
11454;DHT22;5783;55.174;61.310;2023-03-14T01:24:05;18.30;43.40
11454;DHT22;5783;55.174;61.310;2023-03-14T01:26:35;18.30;43.30
11454;DHT22;5783;55.174;61.310;2023-03-14T01:29:04;18.30;43.50
11454;DHT22;5783;55.174;61.310;2023-03-14T01:31:33;18.30;43.50
11454;DHT22;5783;55.174;61.310;2023-03-14T01:34:02;18.30;43.40
11454;DHT22;5783;55.174;61.310;2023-03-14T01:36:32;18.30;43.30
11454;DHT22;5783;55.174;61.310;2023-03-14T01:39:02;18.30;43.40
11454;DHT22;5783;55.174;61.310;2023-03-14T01:41:32;18.40;43.30
11454;DHT22;5783;55.174;61.310;2023-03-14T01:44:01;18.30;43.10
11454;DHT22;5783;55.174;61.310;2023-03-14T01:46:50;18.30;43.20
11454;DHT22;5783;55.174;61.310;2023-03-14T01:52:59;18.40;43.10
11454;DHT22;5783;55.174;61.310;2023-03-14T02:00:24;18.40;43.30
11454;DHT22;5783;55.174;61.310;2023-03-14T02:03:14;18.30;43.20
11454;DHT22;5783;55.174;61.310;2023-03-14T02:05:44;18.30;43.20
11454;DHT22;5783;55.174;61.310;2023-03-14T02:08:17;18.30;43.00
11454;DHT22;5783;55.174;61.310;2023-03-14T02:10:48;18.30;43.10
11454;DHT22;5783;55.174;61.310;2023-03-14T02:13:19;18.40;44.10
11454;DHT22;5783;55.174;61.310;2023-03-14T02:15:49;18.40;43.60
11454;DHT22;5783;55.174;61.310;2023-03-14T02:18:19;18.40;43.50
11454;DHT22;5783;55.174;61.310;2023-03-14T02:27:42;18.40;43.70
11454;DHT22;5783;55.174;61.310;2023-03-14T02:29:41;18.30;43.60
11454;DHT22;5783;55.174;61.310;2023-03-14T02:32:10;18.30;43.80
11454;DHT22;5783;55.174;61.310;2023-03-14T02:34:40;18.30;43.70
11454;DHT22;5783;55.174;61.310;2023-03-14T02:37:11;18.40;43.70
11454;DHT22;5783;55.174;61.310;2023-03-14T02:39:43;18.40;43.60
11454;DHT22;5783;55.174;61.310;2023-03-14T02:42:15;18.40;43.80
11454;DHT22;5783;55.174;61.310;2023-03-14T02:48:14;18.50;43.50
11454;DHT22;5783;55.174;61.310;2023-03-14T02:50:44;18.40;43.50
11454;DHT22;5783;55.174;61.310;2023-03-14T02:53:17;18.40;43.50
11454;DHT22;5783;55.174;61.310;2023-03-14T02:55:48;18.40;43.40
11454;DHT22;5783;55.174;61.310;2023-03-14T02:58:19;18.50;43.70
11454;DHT22;5783;55.174;61.310;2023-03-14T03:00:48;18.40;43.50
11454;DHT22;5783;55.174;61.310;2023-03-14T03:03:17;18.40;43.70
11454;DHT22;5783;55.174;61.310;2023-03-14T03:06:06;18.40;43.70
11454;DHT22;5783;55.174;61.310;2023-03-14T03:08:35;18.40;43.50
11454;DHT22;5783;55.174;61.310;2023-03-14T03:11:05;18.40;43.70
11454;DHT22;5783;55.174;61.310;2023-03-14T03:13:35;18.40;43.70
11454;DHT22;5783;55.174;61.310;2023-03-14T03:16:04;18.40;43.50
11454;DHT22;5783;55.174;61.310;2023-03-14T03:18:33;18.40;43.50
11454;DHT22;5783;55.174;61.310;2023-03-14T03:21:04;18.40;43.50
11454;DHT22;5783;55.174;61.310;2023-03-14T03:23:35;18.40;43.70
11454;DHT22;5783;55.174;61.310;2023-03-14T03:26:04;18.40;43.70
11454;DHT22;5783;55.174;61.310;2023-03-14T03:28:33;18.40;43.80
11454;DHT22;5783;55.174;61.310;2023-03-14T03:31:22;18.30;43.70
11454;DHT22;5783;55.174;61.310;2023-03-14T03:33:51;18.30;43.70
11454;DHT22;5783;55.174;61.310;2023-03-14T03:36:22;18.30;43.80
11454;DHT22;5783;55.174;61.310;2023-03-14T03:38:51;18.30;44.00
11454;DHT22;5783;55.174;61.310;2023-03-14T03:41:20;18.20;43.80
11454;DHT22;5783;55.174;61.310;2023-03-14T03:43:49;18.20;43.90
11454;DHT22;5783;55.174;61.310;2023-03-14T03:46:20;18.20;44.00
11454;DHT22;5783;55.174;61.310;2023-03-14T03:51:40;18.20;44.10
11454;DHT22;5783;55.174;61.310;2023-03-14T03:54:09;18.20;44.30
11454;DHT22;5783;55.174;61.310;2023-03-14T03:56:38;18.20;44.80
11454;DHT22;5783;55.174;61.310;2023-03-14T03:59:07;18.20;44.70
11454;DHT22;5783;55.174;61.310;2023-03-14T04:01:37;18.20;44.70
11454;DHT22;5783;55.174;61.310;2023-03-14T04:04:06;18.20;44.60
11454;DHT22;5783;55.174;61.310;2023-03-14T04:06:36;18.20;44.60
11454;DHT22;5783;55.174;61.310;2023-03-14T04:09:05;18.20;44.20
11454;DHT22;5783;55.174;61.310;2023-03-14T04:11:34;18.30;44.30
11454;DHT22;5783;55.174;61.310;2023-03-14T04:14:04;18.30;44.10
11454;DHT22;5783;55.174;61.310;2023-03-14T04:16:34;18.40;44.20
11454;DHT22;5783;55.174;61.310;2023-03-14T04:19:03;18.40;44.00
11454;DHT22;5783;55.174;61.310;2023-03-14T04:21:32;18.40;43.90
11454;DHT22;5783;55.174;61.310;2023-03-14T04:24:01;18.40;43.90
11454;DHT22;5783;55.174;61.310;2023-03-14T04:26:31;18.40;43.90
11454;DHT22;5783;55.174;61.310;2023-03-14T04:29:00;18.40;43.90
11454;DHT22;5783;55.174;61.310;2023-03-14T04:31:29;18.40;43.90
11454;DHT22;5783;55.174;61.310;2023-03-14T04:33:58;18.40;43.70
11454;DHT22;5783;55.174;61.310;2023-03-14T04:36:27;18.50;45.40
11454;DHT22;5783;55.174;61.310;2023-03-14T04:38:56;18.70;48.20
11454;DHT22;5783;55.174;61.310;2023-03-14T04:41:25;18.90;46.30
11454;DHT22;5783;55.174;61.310;2023-03-14T04:43:55;19.00;43.00
11454;DHT22;5783;55.174;61.310;2023-03-14T04:46:24;19.10;43.70
11454;DHT22;5783;55.174;61.310;2023-03-14T04:48:53;19.10;44.60
11454;DHT22;5783;55.174;61.310;2023-03-14T04:51:23;19.20;43.50
11454;DHT22;5783;55.174;61.310;2023-03-14T04:53:54;19.30;43.60
11454;DHT22;5783;55.174;61.310;2023-03-14T04:56:23;19.40;43.40
11454;DHT22;5783;55.174;61.310;2023-03-14T04:58:52;19.50;43.60
11454;DHT22;5783;55.174;61.310;2023-03-14T05:01:21;19.60;43.60
11454;DHT22;5783;55.174;61.310;2023-03-14T05:03:51;19.70;44.00
11454;DHT22;5783;55.174;61.310;2023-03-14T05:06:20;19.70;43.90
11454;DHT22;5783;55.174;61.310;2023-03-14T05:08:49;19.80;44.00
11454;DHT22;5783;55.174;61.310;2023-03-14T05:11:18;19.80;43.90
11454;DHT22;5783;55.174;61.310;2023-03-14T05:13:47;19.80;44.20
11454;DHT22;5783;55.174;61.310;2023-03-14T05:16:17;19.80;44.20
11454;DHT22;5783;55.174;61.310;2023-03-14T05:18:46;19.80;44.00
11454;DHT22;5783;55.174;61.310;2023-03-14T05:21:16;19.80;43.80
11454;DHT22;5783;55.174;61.310;2023-03-14T05:23:45;19.70;43.90
11454;DHT22;5783;55.174;61.310;2023-03-14T05:26:14;19.50;44.20
11454;DHT22;5783;55.174;61.310;2023-03-14T05:31:14;19.30;44.60
11454;DHT22;5783;55.174;61.310;2023-03-14T05:33:43;19.20;44.50
11454;DHT22;5783;55.174;61.310;2023-03-14T05:36:13;19.30;44.80
11454;DHT22;5783;55.174;61.310;2023-03-14T05:38:42;19.30;45.10
11454;DHT22;5783;55.174;61.310;2023-03-14T05:41:11;19.30;45.00
11454;DHT22;5783;55.174;61.310;2023-03-14T05:43:40;19.50;44.80
11454;DHT22;5783;55.174;61.310;2023-03-14T05:46:09;19.50;44.20
11454;DHT22;5783;55.174;61.310;2023-03-14T05:48:39;19.70;44.50
11454;DHT22;5783;55.174;61.310;2023-03-14T05:51:08;19.90;44.00
11454;DHT22;5783;55.174;61.310;2023-03-14T05:53:37;20.00;45.60
11454;DHT22;5783;55.174;61.310;2023-03-14T05:56:07;20.10;48.60
11454;DHT22;5783;55.174;61.310;2023-03-14T05:58:36;20.10;48.90
11454;DHT22;5783;55.174;61.310;2023-03-14T06:01:06;20.10;48.40
11454;DHT22;5783;55.174;61.310;2023-03-14T06:03:36;20.20;47.60
11454;DHT22;5783;55.174;61.310;2023-03-14T06:06:05;20.10;48.00
11454;DHT22;5783;55.174;61.310;2023-03-14T06:08:34;19.90;48.40
11454;DHT22;5783;55.174;61.310;2023-03-14T06:11:04;19.80;48.60
11454;DHT22;5783;55.174;61.310;2023-03-14T06:13:33;19.70;48.50
11454;DHT22;5783;55.174;61.310;2023-03-14T06:16:02;19.40;48.40
11454;DHT22;5783;55.174;61.310;2023-03-14T06:18:33;19.00;54.30
11454;DHT22;5783;55.174;61.310;2023-03-14T06:21:02;18.90;55.30
11454;DHT22;5783;55.174;61.310;2023-03-14T06:23:31;18.90;55.70
11454;DHT22;5783;55.174;61.310;2023-03-14T06:26:00;19.00;56.10
11454;DHT22;5783;55.174;61.310;2023-03-14T06:28:29;19.20;55.90
11454;DHT22;5783;55.174;61.310;2023-03-14T06:31:00;19.50;55.40
11454;DHT22;5783;55.174;61.310;2023-03-14T06:33:29;19.80;54.30
11454;DHT22;5783;55.174;61.310;2023-03-14T06:35:58;20.10;54.50
11454;DHT22;5783;55.174;61.310;2023-03-14T06:38:27;20.40;55.20
11454;DHT22;5783;55.174;61.310;2023-03-14T06:41:00;20.30;56.40
11454;DHT22;5783;55.174;61.310;2023-03-14T06:43:27;20.40;58.60
11454;DHT22;5783;55.174;61.310;2023-03-14T06:45:56;20.50;66.70
11454;DHT22;5783;55.174;61.310;2023-03-14T06:48:25;20.60;63.00
11454;DHT22;5783;55.174;61.310;2023-03-14T06:50:54;20.60;58.10
11454;DHT22;5783;55.174;61.310;2023-03-14T06:53:23;20.50;57.20
11454;DHT22;5783;55.174;61.310;2023-03-14T06:55:53;20.50;57.40
11454;DHT22;5783;55.174;61.310;2023-03-14T06:58:22;20.50;57.30
11454;DHT22;5783;55.174;61.310;2023-03-14T07:00:53;20.50;57.00
11454;DHT22;5783;55.174;61.310;2023-03-14T07:03:23;20.60;56.90
11454;DHT22;5783;55.174;61.310;2023-03-14T07:05:53;20.60;55.50
11454;DHT22;5783;55.174;61.310;2023-03-14T07:08:22;20.70;55.90
11454;DHT22;5783;55.174;61.310;2023-03-14T07:10:51;20.80;54.90
11454;DHT22;5783;55.174;61.310;2023-03-14T07:13:20;20.80;59.40
11454;DHT22;5783;55.174;61.310;2023-03-14T07:15:49;20.90;55.40
11454;DHT22;5783;55.174;61.310;2023-03-14T07:18:18;20.90;53.40
11454;DHT22;5783;55.174;61.310;2023-03-14T07:20:48;20.90;51.90
11454;DHT22;5783;55.174;61.310;2023-03-14T07:23:17;20.90;51.30
11454;DHT22;5783;55.174;61.310;2023-03-14T07:25:46;20.90;50.90
11454;DHT22;5783;55.174;61.310;2023-03-14T07:28:15;21.00;51.00
11454;DHT22;5783;55.174;61.310;2023-03-14T07:30:46;21.00;50.10
11454;DHT22;5783;55.174;61.310;2023-03-14T07:33:15;21.00;49.20
11454;DHT22;5783;55.174;61.310;2023-03-14T07:35:46;21.00;49.20
11454;DHT22;5783;55.174;61.310;2023-03-14T07:38:16;20.90;48.80
11454;DHT22;5783;55.174;61.310;2023-03-14T07:40:45;21.00;48.70
11454;DHT22;5783;55.174;61.310;2023-03-14T07:43:15;21.00;48.50
11454;DHT22;5783;55.174;61.310;2023-03-14T07:45:46;21.00;48.30
11454;DHT22;5783;55.174;61.310;2023-03-14T07:48:15;21.00;48.30
11454;DHT22;5783;55.174;61.310;2023-03-14T07:50:48;20.90;48.20
11454;DHT22;5783;55.174;61.310;2023-03-14T07:53:16;20.90;48.20
11454;DHT22;5783;55.174;61.310;2023-03-14T07:55:45;20.90;48.10
11454;DHT22;5783;55.174;61.310;2023-03-14T07:58:14;20.90;48.00
11454;DHT22;5783;55.174;61.310;2023-03-14T08:00:44;20.90;47.80
11454;DHT22;5783;55.174;61.310;2023-03-14T08:03:13;21.20;48.20
11454;DHT22;5783;55.174;61.310;2023-03-14T08:05:43;21.00;48.00
11454;DHT22;5783;55.174;61.310;2023-03-14T08:08:12;21.00;47.70
11454;DHT22;5783;55.174;61.310;2023-03-14T08:10:41;21.00;47.40
11454;DHT22;5783;55.174;61.310;2023-03-14T08:13:10;21.00;47.50
11454;DHT22;5783;55.174;61.310;2023-03-14T08:15:40;21.00;47.40
11454;DHT22;5783;55.174;61.310;2023-03-14T08:18:09;21.00;47.40
11454;DHT22;5783;55.174;61.310;2023-03-14T08:20:38;21.00;47.10
11454;DHT22;5783;55.174;61.310;2023-03-14T08:23:07;20.90;47.20
11454;DHT22;5783;55.174;61.310;2023-03-14T08:25:38;20.90;47.20
11454;DHT22;5783;55.174;61.310;2023-03-14T08:28:07;20.90;47.00
11454;DHT22;5783;55.174;61.310;2023-03-14T08:30:36;20.90;47.10
11454;DHT22;5783;55.174;61.310;2023-03-14T08:33:13;21.00;47.30
11454;DHT22;5783;55.174;61.310;2023-03-14T08:35:53;20.90;46.90
11454;DHT22;5783;55.174;61.310;2023-03-14T08:38:23;20.90;47.60
11454;DHT22;5783;55.174;61.310;2023-03-14T08:41:12;20.90;47.40
11454;DHT22;5783;55.174;61.310;2023-03-14T08:43:41;20.90;46.80
11454;DHT22;5783;55.174;61.310;2023-03-14T08:46:10;20.80;46.70
11454;DHT22;5783;55.174;61.310;2023-03-14T08:48:39;20.80;46.40
11454;DHT22;5783;55.174;61.310;2023-03-14T08:51:10;20.60;45.90
11454;DHT22;5783;55.174;61.310;2023-03-14T08:53:41;20.30;46.80
11454;DHT22;5783;55.174;61.310;2023-03-14T08:56:10;20.10;46.70
11454;DHT22;5783;55.174;61.310;2023-03-14T08:58:39;20.00;47.50
11454;DHT22;5783;55.174;61.310;2023-03-14T09:01:10;19.90;47.50
11454;DHT22;5783;55.174;61.310;2023-03-14T09:03:39;20.00;47.20
11454;DHT22;5783;55.174;61.310;2023-03-14T09:06:10;20.10;46.40
11454;DHT22;5783;55.174;61.310;2023-03-14T09:08:39;20.00;46.40
11454;DHT22;5783;55.174;61.310;2023-03-14T09:11:09;20.00;46.90
11454;DHT22;5783;55.174;61.310;2023-03-14T09:13:38;20.00;47.10
11454;DHT22;5783;55.174;61.310;2023-03-14T09:16:27;20.10;46.80
11454;DHT22;5783;55.174;61.310;2023-03-14T09:18:56;20.20;46.40
11454;DHT22;5783;55.174;61.310;2023-03-14T09:21:45;20.20;46.10
11454;DHT22;5783;55.174;61.310;2023-03-14T09:24:14;20.10;45.70
11454;DHT22;5783;55.174;61.310;2023-03-14T09:26:43;19.90;45.70
11454;DHT22;5783;55.174;61.310;2023-03-14T09:29:12;19.90;46.40
11454;DHT22;5783;55.174;61.310;2023-03-14T09:31:42;19.90;46.40
11454;DHT22;5783;55.174;61.310;2023-03-14T09:34:11;20.10;45.60
11454;DHT22;5783;55.174;61.310;2023-03-14T09:36:40;20.20;36.40
11454;DHT22;5783;55.174;61.310;2023-03-14T09:39:11;20.20;36.30
11454;DHT22;5783;55.174;61.310;2023-03-14T09:41:43;20.20;35.70
11454;DHT22;5783;55.174;61.310;2023-03-14T09:44:34;20.20;35.40
11454;DHT22;5783;55.174;61.310;2023-03-14T09:47:05;20.10;35.60
11454;DHT22;5783;55.174;61.310;2023-03-14T09:49:39;20.10;35.90
11454;DHT22;5783;55.174;61.310;2023-03-14T09:55:19;20.20;35.10
11454;DHT22;5783;55.174;61.310;2023-03-14T10:00:58;20.30;35.70
11454;DHT22;5783;55.174;61.310;2023-03-14T10:03:47;20.20;35.30
11454;DHT22;5783;55.174;61.310;2023-03-14T10:06:17;20.10;35.60
11454;DHT22;5783;55.174;61.310;2023-03-14T10:08:47;20.20;35.50
11454;DHT22;5783;55.174;61.310;2023-03-14T10:11:17;20.10;35.50
11454;DHT22;5783;55.174;61.310;2023-03-14T10:14:06;20.00;35.20
11454;DHT22;5783;55.174;61.310;2023-03-14T10:19:26;19.80;35.20
11454;DHT22;5783;55.174;61.310;2023-03-14T10:21:56;19.60;35.80
11454;DHT22;5783;55.174;61.310;2023-03-14T10:24:46;19.40;38.40
11454;DHT22;5783;55.174;61.310;2023-03-14T10:27:35;19.40;42.50
11454;DHT22;5783;55.174;61.310;2023-03-14T10:30:07;19.50;42.10
11454;DHT22;5783;55.174;61.310;2023-03-14T10:32:38;19.60;41.20
11454;DHT22;5783;55.174;61.310;2023-03-14T10:38:19;19.70;40.50
11454;DHT22;5783;55.174;61.310;2023-03-14T10:40:52;19.60;40.20
11454;DHT22;5783;55.174;61.310;2023-03-14T10:43:41;19.60;40.70
11454;DHT22;5783;55.174;61.310;2023-03-14T10:46:14;19.70;40.20
11454;DHT22;5783;55.174;61.310;2023-03-14T10:48:44;19.80;40.30
11454;DHT22;5783;55.174;61.310;2023-03-14T10:51:34;19.90;40.30
11454;DHT22;5783;55.174;61.310;2023-03-14T10:57:13;20.00;39.10
11454;DHT22;5783;55.174;61.310;2023-03-14T10:59:43;19.90;39.60
11454;DHT22;5783;55.174;61.310;2023-03-14T11:02:34;19.90;39.80
11454;DHT22;5783;55.174;61.310;2023-03-14T11:14:32;19.90;39.80
11454;DHT22;5783;55.174;61.310;2023-03-14T11:26:13;20.00;39.00
11454;DHT22;5783;55.174;61.310;2023-03-14T11:28:41;20.00;38.90
11454;DHT22;5783;55.174;61.310;2023-03-14T11:31:32;19.90;39.00
11454;DHT22;5783;55.174;61.310;2023-03-14T11:40:22;19.80;40.00
11454;DHT22;5783;55.174;61.310;2023-03-14T11:46:01;19.70;40.40
11454;DHT22;5783;55.174;61.310;2023-03-14T11:57:05;19.70;40.80
11454;DHT22;5783;55.174;61.310;2023-03-14T12:09:02;19.80;40.90
11454;DHT22;5783;55.174;61.310;2023-03-14T12:12:25;19.70;40.90
11454;DHT22;5783;55.174;61.310;2023-03-14T12:20:40;19.60;41.00
11454;DHT22;5783;55.174;61.310;2023-03-14T12:23:12;19.40;41.30
11454;DHT22;5783;55.174;61.310;2023-03-14T12:25:42;19.40;41.60
11454;DHT22;5783;55.174;61.310;2023-03-14T12:30:45;19.30;42.30
11454;DHT22;5783;55.174;61.310;2023-03-14T12:33:34;19.30;40.20
11454;DHT22;5783;55.174;61.310;2023-03-14T12:36:04;19.30;40.30
11454;DHT22;5783;55.174;61.310;2023-03-14T12:41:46;19.20;39.80
11454;DHT22;5783;55.174;61.310;2023-03-14T12:49:56;18.80;40.60
11454;DHT22;5783;55.174;61.310;2023-03-14T13:01:35;18.80;40.00
11454;DHT22;5783;55.174;61.310;2023-03-14T13:16:02;18.50;39.90
11454;DHT22;5783;55.174;61.310;2023-03-14T13:18:59;18.40;40.80
11454;DHT22;5783;55.174;61.310;2023-03-14T13:21:24;18.30;40.50
11454;DHT22;5783;55.174;61.310;2023-03-14T13:27:02;18.30;41.90
11454;DHT22;5783;55.174;61.310;2023-03-14T13:29:32;18.30;42.20
11454;DHT22;5783;55.174;61.310;2023-03-14T13:32:13;18.20;42.30
11454;DHT22;5783;55.174;61.310;2023-03-14T13:34:34;18.10;41.10
11454;DHT22;5783;55.174;61.310;2023-03-14T13:37:03;18.10;40.30
11454;DHT22;5783;55.174;61.310;2023-03-14T13:39:33;18.00;40.60
11454;DHT22;5783;55.174;61.310;2023-03-14T13:42:03;18.00;41.00
11454;DHT22;5783;55.174;61.310;2023-03-14T13:44:35;17.90;40.30
11454;DHT22;5783;55.174;61.310;2023-03-14T13:49:58;17.70;41.70
11454;DHT22;5783;55.174;61.310;2023-03-14T13:52:47;17.60;43.10
11454;DHT22;5783;55.174;61.310;2023-03-14T13:55:18;17.60;43.00
11454;DHT22;5783;55.174;61.310;2023-03-14T13:57:49;17.50;44.00
11454;DHT22;5783;55.174;61.310;2023-03-14T14:00:38;17.50;44.10
11454;DHT22;5783;55.174;61.310;2023-03-14T14:03:09;17.50;46.80
11454;DHT22;5783;55.174;61.310;2023-03-14T14:05:39;17.50;47.00
11454;DHT22;5783;55.174;61.310;2023-03-14T14:08:11;17.50;47.00
11454;DHT22;5783;55.174;61.310;2023-03-14T14:10:41;17.50;47.70
11454;DHT22;5783;55.174;61.310;2023-03-14T14:13:13;17.60;47.70
11454;DHT22;5783;55.174;61.310;2023-03-14T14:15:44;17.60;47.90
11454;DHT22;5783;55.174;61.310;2023-03-14T14:18:16;17.60;47.90
11454;DHT22;5783;55.174;61.310;2023-03-14T14:20:48;17.60;48.40
11454;DHT22;5783;55.174;61.310;2023-03-14T14:23:20;17.60;49.00
11454;DHT22;5783;55.174;61.310;2023-03-14T14:25:53;17.60;48.70
11454;DHT22;5783;55.174;61.310;2023-03-14T14:28:42;17.60;49.70
11454;DHT22;5783;55.174;61.310;2023-03-14T14:31:32;17.60;49.30
11454;DHT22;5783;55.174;61.310;2023-03-14T14:34:22;17.50;49.30
11454;DHT22;5783;55.174;61.310;2023-03-14T14:36:53;17.50;50.00
11454;DHT22;5783;55.174;61.310;2023-03-14T14:39:24;17.40;56.10
11454;DHT22;5783;55.174;61.310;2023-03-14T14:41:55;17.40;53.90
11454;DHT22;5783;55.174;61.310;2023-03-14T14:44:44;17.40;48.60
11454;DHT22;5783;55.174;61.310;2023-03-14T14:47:14;17.40;48.30
11454;DHT22;5783;55.174;61.310;2023-03-14T14:49:44;17.40;48.10
11454;DHT22;5783;55.174;61.310;2023-03-14T14:52:18;17.40;47.80
11454;DHT22;5783;55.174;61.310;2023-03-14T14:57:39;17.30;47.20
11454;DHT22;5783;55.174;61.310;2023-03-14T15:00:17;17.20;47.40
11454;DHT22;5783;55.174;61.310;2023-03-14T15:05:32;17.30;50.60
11454;DHT22;5783;55.174;61.310;2023-03-14T15:08:02;17.30;51.90
11454;DHT22;5783;55.174;61.310;2023-03-14T15:10:31;17.30;52.90
11454;DHT22;5783;55.174;61.310;2023-03-14T15:13:01;17.30;53.70
11454;DHT22;5783;55.174;61.310;2023-03-14T15:15:30;17.30;55.90
11454;DHT22;5783;55.174;61.310;2023-03-14T15:18:01;17.20;69.00
11454;DHT22;5783;55.174;61.310;2023-03-14T15:20:30;17.30;65.10
11454;DHT22;5783;55.174;61.310;2023-03-14T15:22:59;17.30;64.90
11454;DHT22;5783;55.174;61.310;2023-03-14T15:25:28;17.30;70.00
11454;DHT22;5783;55.174;61.310;2023-03-14T15:27:58;17.00;72.30
11454;DHT22;5783;55.174;61.310;2023-03-14T15:30:27;17.30;71.50
11454;DHT22;5783;55.174;61.310;2023-03-14T15:32:56;17.20;71.40
11454;DHT22;5783;55.174;61.310;2023-03-14T15:35:25;17.30;70.90
11454;DHT22;5783;55.174;61.310;2023-03-14T15:37:54;17.20;70.40
11454;DHT22;5783;55.174;61.310;2023-03-14T15:40:24;17.30;70.50
11454;DHT22;5783;55.174;61.310;2023-03-14T15:42:54;17.30;70.30
11454;DHT22;5783;55.174;61.310;2023-03-14T15:45:23;17.30;69.90
11454;DHT22;5783;55.174;61.310;2023-03-14T15:47:52;17.30;69.70
11454;DHT22;5783;55.174;61.310;2023-03-14T15:50:21;17.30;69.70
11454;DHT22;5783;55.174;61.310;2023-03-14T15:52:52;17.30;68.90
11454;DHT22;5783;55.174;61.310;2023-03-14T15:55:23;17.30;69.10
11454;DHT22;5783;55.174;61.310;2023-03-14T15:57:52;17.30;68.60
11454;DHT22;5783;55.174;61.310;2023-03-14T16:00:22;17.40;67.90
11454;DHT22;5783;55.174;61.310;2023-03-14T16:02:51;17.30;68.30
11454;DHT22;5783;55.174;61.310;2023-03-14T16:05:21;17.30;64.70
11454;DHT22;5783;55.174;61.310;2023-03-14T16:07:50;17.30;63.50
11454;DHT22;5783;55.174;61.310;2023-03-14T16:10:19;17.30;63.50
11454;DHT22;5783;55.174;61.310;2023-03-14T16:12:48;17.30;62.50
11454;DHT22;5783;55.174;61.310;2023-03-14T16:15:19;17.30;62.30
11454;DHT22;5783;55.174;61.310;2023-03-14T16:20:38;17.30;63.00
11454;DHT22;5783;55.174;61.310;2023-03-14T16:23:07;17.30;62.80
11454;DHT22;5783;55.174;61.310;2023-03-14T16:25:36;17.30;62.40
11454;DHT22;5783;55.174;61.310;2023-03-14T16:28:05;17.30;61.80
11454;DHT22;5783;55.174;61.310;2023-03-14T16:30:34;17.30;61.60
11454;DHT22;5783;55.174;61.310;2023-03-14T16:33:04;17.30;61.50
11454;DHT22;5783;55.174;61.310;2023-03-14T16:35:36;17.30;61.70
11454;DHT22;5783;55.174;61.310;2023-03-14T16:38:06;17.30;61.50
11454;DHT22;5783;55.174;61.310;2023-03-14T16:40:35;17.30;61.50
11454;DHT22;5783;55.174;61.310;2023-03-14T16:43:04;17.30;61.50
11454;DHT22;5783;55.174;61.310;2023-03-14T16:45:35;17.30;61.60
11454;DHT22;5783;55.174;61.310;2023-03-14T16:48:04;17.40;61.70
11454;DHT22;5783;55.174;61.310;2023-03-14T16:50:33;17.30;61.50
11454;DHT22;5783;55.174;61.310;2023-03-14T16:53:03;17.30;61.60
11454;DHT22;5783;55.174;61.310;2023-03-14T16:55:32;17.30;61.60
11454;DHT22;5783;55.174;61.310;2023-03-14T16:58:01;17.30;61.60
11454;DHT22;5783;55.174;61.310;2023-03-14T17:00:30;17.30;61.60
11454;DHT22;5783;55.174;61.310;2023-03-14T17:02:59;17.30;62.10
11454;DHT22;5783;55.174;61.310;2023-03-14T17:05:28;17.30;62.30
11454;DHT22;5783;55.174;61.310;2023-03-14T17:07:58;17.30;62.70
11454;DHT22;5783;55.174;61.310;2023-03-14T17:10:27;17.30;62.60
11454;DHT22;5783;55.174;61.310;2023-03-14T17:12:56;17.20;62.60
11454;DHT22;5783;55.174;61.310;2023-03-14T17:15:25;17.20;62.70
11454;DHT22;5783;55.174;61.310;2023-03-14T17:17:55;17.30;62.90
11454;DHT22;5783;55.174;61.310;2023-03-14T17:20:24;17.30;63.00
11454;DHT22;5783;55.174;61.310;2023-03-14T17:22:53;17.30;63.60
11454;DHT22;5783;55.174;61.310;2023-03-14T17:25:22;17.30;63.40
11454;DHT22;5783;55.174;61.310;2023-03-14T17:27:52;17.20;63.40
11454;DHT22;5783;55.174;61.310;2023-03-14T17:30:21;17.20;63.50
11454;DHT22;5783;55.174;61.310;2023-03-14T17:32:50;17.20;63.30
11454;DHT22;5783;55.174;61.310;2023-03-14T17:35:19;17.20;63.50
11454;DHT22;5783;55.174;61.310;2023-03-14T17:37:48;17.20;63.80
11454;DHT22;5783;55.174;61.310;2023-03-14T17:40:17;17.20;64.30
11454;DHT22;5783;55.174;61.310;2023-03-14T17:42:46;17.20;64.00
11454;DHT22;5783;55.174;61.310;2023-03-14T17:45:16;17.20;64.10
11454;DHT22;5783;55.174;61.310;2023-03-14T17:47:45;17.20;64.30
11454;DHT22;5783;55.174;61.310;2023-03-14T17:50:14;17.20;64.30
11454;DHT22;5783;55.174;61.310;2023-03-14T17:52:44;17.20;64.40
11454;DHT22;5783;55.174;61.310;2023-03-14T17:55:13;17.20;65.00
11454;DHT22;5783;55.174;61.310;2023-03-14T17:57:42;17.20;65.10
11454;DHT22;5783;55.174;61.310;2023-03-14T18:00:12;17.20;65.60
11454;DHT22;5783;55.174;61.310;2023-03-14T18:02:41;17.20;65.60
11454;DHT22;5783;55.174;61.310;2023-03-14T18:05:11;17.20;65.70
11454;DHT22;5783;55.174;61.310;2023-03-14T18:07:40;17.20;66.00
11454;DHT22;5783;55.174;61.310;2023-03-14T18:10:10;17.20;66.00
11454;DHT22;5783;55.174;61.310;2023-03-14T18:12:42;17.20;66.00
11454;DHT22;5783;55.174;61.310;2023-03-14T18:15:11;17.20;65.90
11454;DHT22;5783;55.174;61.310;2023-03-14T18:17:41;17.20;66.30